Time;durP1;ratioP1;P1;durP2;ratioP2;P2;SDS_P1;SDS_P2;PMS_P1;PMS_P2;Temp;Humidity;BMP_temperature;BMP_pressure;BME280_temperature;BME280_humidity;BME280_pressure;Samples;Min_cycle;Max_cycle;Signal;HPM_P1;HPM_P2
2023/03/30 00:00:17;;;;;;;13.35;4.53;;;;;;;11.77;89.03;100280.69;5071063;28;20052;-56
2023/03/30 00:02:48;;;;;;;15.32;4.50;;;;;;;11.70;88.99;100262.78;5074738;28;20045;-56
2023/03/30 00:05:16;;;;;;;11.88;4.80;;;;;;;11.74;88.85;100259.78;5069585;28;20070;-56
2023/03/30 00:07:44;;;;;;;13.38;5.18;;;;;;;11.76;88.10;100252.47;5074869;28;20052;-57
2023/03/30 00:10:14;;;;;;;12.63;4.70;;;;;;;11.70;88.79;100256.66;5059537;28;20056;-56
2023/03/30 00:12:42;;;;;;;16.65;4.53;;;;;;;11.68;88.34;100256.81;5074193;28;20040;-56
2023/03/30 00:15:11;;;;;;;14.95;4.38;;;;;;;11.72;87.97;100258.13;5069524;28;20044;-56
2023/03/30 00:17:38;;;;;;;14.13;4.28;;;;;;;11.75;87.66;100250.78;5073222;28;20048;-56
2023/03/30 00:20:10;;;;;;;13.43;4.85;;;;;;;11.70;87.85;100241.53;5071982;28;20048;-56
2023/03/30 00:22:37;;;;;;;;;;;;;;;11.74;87.05;100244.66;5056278;28;20052;-60
2023/03/30 00:25:07;;;;;;;13.25;4.50;;;;;;;11.78;87.01;100237.19;5049704;28;19972;-56
2023/03/30 00:27:35;;;;;;;13.35;4.40;;;;;;;11.73;86.81;100237.69;5054490;28;20049;-56
2023/03/30 00:30:07;;;;;;;16.58;4.28;;;;;;;11.67;87.32;100241.03;5048976;28;20052;-56
2023/03/30 00:32:34;;;;;;;11.98;4.00;;;;;;;11.70;87.23;100257.47;5054287;28;20045;-56
2023/03/30 00:35:01;;;;;;;13.02;4.28;;;;;;;11.63;86.98;100251.19;5049015;28;20099;-56
2023/03/30 00:37:28;;;;;;;13.18;4.18;;;;;;;11.67;86.64;100251.66;5052808;28;20053;-56
2023/03/30 00:39:55;;;;;;;14.18;5.03;;;;;;;11.67;86.50;100249.00;5068660;28;20055;-56
2023/03/30 00:42:23;;;;;;;14.25;4.13;;;;;;;11.69;85.25;100253.16;5073875;28;20078;-56
2023/03/30 00:45:18;;;;;;;13.23;4.07;;;;;;;11.70;85.57;100251.34;5069395;28;20109;-56
2023/03/30 00:47:53;;;;;;;11.63;4.13;;;;;;;11.65;85.55;100240.41;5073831;28;20375;-56
2023/03/30 00:50:23;;;;;;;15.15;4.28;;;;;;;11.64;85.45;100236.06;5068659;28;20059;-56
2023/03/30 00:52:52;;;;;;;9.48;3.83;;;;;;;11.66;85.53;100224.28;5073914;28;20053;-56
2023/03/30 00:55:22;;;;;;;14.35;4.35;;;;;;;11.75;84.83;100203.81;5068286;28;20490;-56
2023/03/30 00:57:51;;;;;;;12.90;3.90;;;;;;;11.69;84.80;100209.81;5073483;28;20541;-56
2023/03/30 01:00:18;;;;;;;12.13;3.75;;;;;;;11.69;84.83;100205.31;5064717;28;20489;-56
2023/03/30 01:02:54;;;;;;;14.43;3.97;;;;;;;11.69;84.86;100196.53;5073205;28;20045;-56
2023/03/30 01:05:23;;;;;;;18.48;4.35;;;;;;;11.81;83.97;100191.66;5068763;28;20083;-56
2023/03/30 01:07:50;;;;;;;11.30;4.00;;;;;;;11.69;83.77;100197.34;5074769;28;20040;-56
2023/03/30 01:10:18;;;;;;;14.15;3.72;;;;;;;11.74;83.87;100190.69;5057831;28;20051;-56
2023/03/30 01:12:45;;;;;;;13.00;3.67;;;;;;;11.71;84.71;100189.22;5056696;28;20496;-56
2023/03/30 01:15:12;;;;;;;10.90;3.97;;;;;;;11.70;83.40;100190.22;5067825;28;20044;-56
2023/03/30 01:17:51;;;;;;;14.18;4.40;;;;;;;11.72;82.98;100204.16;5072293;28;20082;-56
2023/03/30 01:20:36;;;;;;;12.75;3.60;;;;;;;11.81;83.39;100205.75;5068231;28;20106;-56
2023/03/30 01:23:45;;;;;;;15.18;3.90;;;;;;;11.89;82.79;100205.69;5072797;28;20068;-56
2023/03/30 01:29:43;;;;;;;12.90;3.70;;;;;;;11.91;82.82;100213.53;5111216;27;20390;-55
2023/03/30 01:35:38;;;;;;;13.45;3.63;;;;;;;12.02;80.41;100207.00;5126478;27;20386;-55
2023/03/30 01:38:24;;;;;;;15.70;3.75;;;;;;;12.06;80.58;100218.91;5110931;28;20075;-56
2023/03/30 01:41:18;;;;;;;15.02;3.80;;;;;;;12.11;80.62;100213.91;5106216;28;20058;-55
2023/03/30 01:44:02;;;;;;;12.65;3.38;;;;;;;12.15;80.02;100227.66;5110910;28;20508;-55
2023/03/30 01:46:39;;;;;;;11.93;3.30;;;;;;;12.15;80.55;100223.22;5105407;28;20043;-55
2023/03/30 01:49:23;;;;;;;12.57;3.90;;;;;;;12.18;80.70;100222.00;5110617;28;20040;-55
2023/03/30 01:52:01;;;;;;;14.15;3.63;;;;;;;12.16;80.11;100210.72;5106397;28;20451;-55
2023/03/30 01:54:33;;;;;;;16.02;3.30;;;;;;;12.16;79.86;100214.22;5109143;28;20054;-55
2023/03/30 01:57:05;;;;;;;12.70;3.33;;;;;;;12.15;78.50;100212.56;5108688;28;20091;-55
2023/03/30 01:59:39;;;;;;;13.98;3.72;;;;;;;12.22;78.82;100210.81;5108118;28;20068;-55
2023/03/30 02:02:08;;;;;;;11.52;3.05;;;;;;;12.25;78.09;100204.34;5109110;28;20055;-55
2023/03/30 02:04:39;;;;;;;10.15;3.65;;;;;;;12.23;78.43;100201.84;5107199;28;20040;-55
2023/03/30 02:07:13;;;;;;;11.30;3.25;;;;;;;12.25;77.68;100191.03;5110192;28;20135;-56
2023/03/30 02:09:43;;;;;;;17.90;3.28;;;;;;;12.28;77.77;100194.19;5088373;28;20048;-55
2023/03/30 02:12:11;;;;;;;14.15;3.60;;;;;;;12.34;77.11;100187.31;5090077;28;20047;-56
2023/03/30 02:14:40;;;;;;;12.13;3.30;;;;;;;12.30;76.99;100186.03;5085957;28;20512;-56
2023/03/30 02:17:16;;;;;;;12.15;3.08;;;;;;;12.42;76.64;100183.75;5090100;28;20552;-56
2023/03/30 02:19:45;;;;;;;21.70;4.05;;;;;;;12.48;75.78;100183.06;5081907;28;20040;-57
2023/03/30 02:22:15;;;;;;;;;;;;;;;12.49;76.03;100174.03;5090131;28;20405;-56
2023/03/30 02:24:44;;;;;;;15.93;3.42;;;;;;;12.46;75.85;100174.41;5085125;28;19982;-56
2023/03/30 02:27:11;;;;;;;12.98;3.42;;;;;;;12.48;74.99;100161.78;5089468;28;20047;-56
2023/03/30 02:29:42;;;;;;;12.60;3.50;;;;;;;12.42;75.93;100155.31;5085585;28;20078;-56
2023/03/30 02:32:19;;;;;;;16.90;3.85;;;;;;;12.39;75.88;100152.22;5089794;28;20062;-58
2023/03/30 02:38:19;;;;;;;14.50;3.55;;;;;;;12.37;76.40;100128.44;5110724;27;20376;-56
2023/03/30 02:41:23;;;;;;;18.95;3.80;;;;;;;12.36;76.14;100139.25;5106263;28;20040;-57
2023/03/30 02:44:25;;;;;;;12.57;3.63;;;;;;;12.36;76.74;100145.41;5110607;28;20511;-56
2023/03/30 02:47:11;;;;;;;16.58;3.30;;;;;;;12.33;76.77;100148.41;5108594;28;20046;-56
2023/03/30 02:49:56;;;;;;;10.88;3.38;;;;;;;12.44;75.93;100148.00;5107217;28;20048;-55
2023/03/30 02:55:19;;;;;;;14.35;3.33;;;;;;;12.59;73.66;100139.22;5106081;27;20350;-55
2023/03/30 02:58:27;;;;;;;11.65;3.30;;;;;;;12.64;74.03;100134.16;5110739;28;20039;-55
2023/03/30 03:01:37;;;;;;;12.90;3.47;;;;;;;12.52;74.62;100115.16;5101603;28;20073;-55
2023/03/30 03:04:11;;;;;;;12.82;3.40;;;;;;;12.56;75.06;100115.63;5111202;28;20044;-55
2023/03/30 03:06:51;;;;;;;12.23;3.47;;;;;;;12.63;76.00;100117.38;5105397;28;20131;-55
2023/03/30 03:09:19;;;;;;;19.77;3.92;;;;;;;12.64;74.94;100116.38;5113784;28;20040;-55
2023/03/30 03:11:46;;;;;;;10.77;3.08;;;;;;;12.62;76.35;100118.38;5094842;28;20120;-55
2023/03/30 03:14:13;;;;;;;16.42;4.03;;;;;;;12.60;77.88;100122.22;5111606;28;20048;-55
2023/03/30 03:16:39;;;;;;;20.10;4.00;;;;;;;12.59;77.47;100129.41;5105403;28;20131;-57
2023/03/30 03:19:10;;;;;;;14.40;4.00;;;;;;;12.60;75.53;100130.22;5110748;28;20063;-55
2023/03/30 03:21:38;;;;;;;17.42;3.78;;;;;;;12.60;75.99;100132.88;5097152;28;20097;-55
2023/03/30 03:24:06;;;;;;;17.77;4.18;;;;;;;12.58;76.12;100137.56;5110378;28;20044;-56
2023/03/30 03:26:52;;;;;;;14.52;3.83;;;;;;;12.58;76.67;100135.72;5105079;28;20044;-57
2023/03/30 03:29:21;;;;;;;13.38;3.50;;;;;;;12.61;74.66;100130.03;5110231;28;20500;-56
2023/03/30 03:31:48;;;;;;;13.05;3.40;;;;;;;12.64;75.85;100115.53;5105178;28;20043;-56
2023/03/30 03:34:16;;;;;;;14.25;3.65;;;;;;;12.61;74.92;100127.38;5110747;28;20039;-56
2023/03/30 03:36:57;;;;;;;15.50;3.42;;;;;;;12.68;75.91;100119.50;5104751;28;20097;-56
2023/03/30 03:39:26;;;;;;;13.48;3.45;;;;;;;12.69;75.51;100115.81;5110641;28;20122;-56
2023/03/30 03:42:00;;;;;;;15.85;3.90;;;;;;;12.72;75.46;100119.97;5105890;28;20058;-56
2023/03/30 03:44:28;;;;;;;15.77;3.53;;;;;;;12.68;75.76;100107.00;5110083;28;20113;-56
2023/03/30 03:46:55;;;;;;;12.40;3.42;;;;;;;12.63;75.20;100101.41;5103404;28;20055;-56
2023/03/30 03:49:22;;;;;;;17.10;3.13;;;;;;;12.66;74.60;100101.06;5110430;28;20072;-56
2023/03/30 03:51:49;;;;;;;18.85;3.38;;;;;;;12.67;76.15;100101.88;5104812;28;20036;-56
2023/03/30 03:54:15;;;;;;;13.00;3.63;;;;;;;12.70;76.34;100098.84;5109489;28;20443;-56
2023/03/30 03:56:43;;;;;;;15.50;3.38;;;;;;;12.71;76.35;100099.66;5104659;28;20058;-56
2023/03/30 03:59:10;;;;;;;16.02;3.20;;;;;;;12.71;74.90;100103.16;5110151;28;20063;-56
2023/03/30 04:01:38;;;;;;;12.93;2.95;;;;;;;12.67;74.59;100097.38;5101651;28;20036;-56
2023/03/30 04:04:07;;;;;;;10.57;2.95;;;;;;;12.78;74.42;100098.75;5110012;28;20097;-56
2023/03/30 04:06:33;;;;;;;10.98;3.13;;;;;;;12.80;75.21;100078.09;5095127;28;20055;-55
2023/03/30 04:09:01;;;;;;;14.80;3.22;;;;;;;12.84;75.12;100086.53;5090819;28;20528;-55
2023/03/30 04:11:48;;;;;;;13.40;3.00;;;;;;;12.89;74.15;100094.78;5082864;28;20044;-55
2023/03/30 04:14:23;;;;;;;15.27;3.15;;;;;;;12.85;73.27;100091.66;5095228;28;20090;-55
2023/03/30 04:17:10;;;;;;;16.10;3.08;;;;;;;12.85;74.79;100083.69;5078560;28;20250;-55
2023/03/30 04:19:45;;;;;;;12.95;3.53;;;;;;;12.87;74.87;100073.69;5092047;28;20397;-56
2023/03/30 04:22:23;;;;;;;12.95;3.40;;;;;;;12.82;74.95;100070.78;5089856;28;20047;-55
2023/03/30 04:25:08;;;;;;;14.88;3.70;;;;;;;12.80;74.93;100072.75;5095035;28;20342;-55
2023/03/30 04:27:52;;;;;;;13.32;3.55;;;;;;;12.74;75.40;100068.19;5090080;28;20072;-56
2023/03/30 04:30:31;;;;;;;15.40;4.22;;;;;;;12.84;74.07;100076.72;5095663;28;20102;-56
2023/03/30 04:33:18;;;;;;;14.13;3.20;;;;;;;12.85;73.60;100078.34;5090961;28;20048;-55
2023/03/30 04:35:55;;;;;;;16.20;3.70;;;;;;;13.01;73.25;100082.66;5095617;28;20047;-55
2023/03/30 04:38:43;;;;;;;12.05;3.03;;;;;;;13.18;72.14;100080.59;5089616;28;20504;-55
2023/03/30 04:41:25;;;;;;;15.32;3.80;;;;;;;13.29;71.99;100086.47;5095780;28;20131;-55
2023/03/30 04:44:05;;;;;;;11.88;3.30;;;;;;;13.25;72.29;100083.34;5091780;28;20094;-56
2023/03/30 04:46:47;;;;;;;16.75;4.10;;;;;;;13.31;72.01;100084.47;5091653;28;20085;-55
2023/03/30 04:49:34;;;;;;;15.75;3.55;;;;;;;13.32;72.12;100086.13;5095063;28;20043;-55
2023/03/30 04:52:21;;;;;;;12.45;3.42;;;;;;;13.35;71.44;100088.41;5090720;28;20051;-55
2023/03/30 04:54:58;;;;;;;13.75;3.13;;;;;;;13.41;71.57;100093.00;5094518;28;20484;-56
2023/03/30 04:57:45;;;;;;;13.43;3.00;;;;;;;13.77;69.96;100100.09;5089597;28;20044;-55
2023/03/30 05:00:32;;;;;;;13.73;3.10;;;;;;;13.71;70.36;100088.38;5094250;28;20046;-56
2023/03/30 05:03:16;;;;;;;13.52;3.10;;;;;;;13.80;69.78;100086.41;5086222;28;20582;-60
2023/03/30 05:06:04;;;;;;;10.73;2.97;;;;;;;13.88;69.87;100082.78;5094727;28;20048;-56
2023/03/30 05:08:45;;;;;;;13.35;3.00;;;;;;;13.86;69.55;100077.66;5080178;28;20049;-55
2023/03/30 05:11:23;;;;;;;12.60;2.75;;;;;;;13.93;69.77;100085.69;5095200;28;20051;-55
2023/03/30 05:13:57;;;;;;;8.80;2.65;;;;;;;13.92;69.70;100081.41;5089307;28;20052;-55
2023/03/30 05:16:43;;;;;;;12.23;3.33;;;;;;;13.90;69.67;100083.41;5092798;28;20051;-55
2023/03/30 05:19:28;;;;;;;14.48;3.15;;;;;;;14.03;69.40;100091.53;5089358;28;20059;-55
2023/03/30 05:22:13;;;;;;;16.65;3.03;;;;;;;14.05;69.15;100096.69;5086211;28;20497;-55
2023/03/30 05:24:56;;;;;;;12.00;2.97;;;;;;;13.98;69.70;100093.94;5089199;28;20044;-55
2023/03/30 05:27:40;;;;;;;9.48;2.50;;;;;;;13.82;69.93;100082.56;5092438;28;20079;-55
2023/03/30 05:30:17;;;;;;;11.60;2.75;;;;;;;13.97;69.76;100098.47;5094266;28;20099;-56
2023/03/30 05:33:04;;;;;;;14.98;2.70;;;;;;;13.98;69.21;100107.28;5091472;28;20237;-55
2023/03/30 05:35:47;;;;;;;10.02;3.10;;;;;;;13.87;70.71;100100.63;5096953;28;20048;-55
2023/03/30 05:38:33;;;;;;;11.45;2.67;;;;;;;13.75;71.18;100104.81;5089136;28;20125;-55
2023/03/30 05:41:21;;;;;;;10.10;2.58;;;;;;;13.78;70.43;100099.91;5094289;28;20040;-55
2023/03/30 05:43:57;;;;;;;9.52;2.80;;;;;;;13.79;71.12;100098.91;5088926;28;20094;-55
2023/03/30 05:46:43;;;;;;;12.13;2.90;;;;;;;13.83;70.57;100092.19;5093216;28;20512;-56
2023/03/30 05:49:28;;;;;;;11.05;3.03;;;;;;;13.88;70.47;100109.44;5087250;28;20044;-55
2023/03/30 05:52:15;;;;;;;9.90;2.85;;;;;;;13.85;70.09;100109.84;5093193;28;20493;-55
2023/03/30 05:55:02;;;;;;;14.20;3.72;;;;;;;13.86;69.95;100120.31;5090111;28;20531;-56
2023/03/30 05:57:49;;;;;;;11.10;2.75;;;;;;;13.92;69.95;100116.06;5090598;28;20130;-55
2023/03/30 06:00:24;;;;;;;12.57;2.60;;;;;;;13.97;68.96;100111.78;5098013;28;20083;-55
2023/03/30 06:03:01;;;;;;;10.25;2.60;;;;;;;13.97;69.49;100113.63;5089634;28;20407;-56
2023/03/30 06:05:32;;;;;;;9.60;2.50;;;;;;;13.97;70.23;100130.47;5090284;28;20124;-55
2023/03/30 06:07:59;;;;;;;10.32;2.60;;;;;;;14.00;69.56;100129.25;5093545;28;20056;-55
2023/03/30 06:10:26;;;;;;;10.20;2.58;;;;;;;13.92;70.29;100116.06;5087351;28;20048;-55
2023/03/30 06:12:54;;;;;;;13.63;3.50;;;;;;;13.92;70.22;100121.41;5093681;28;20067;-55
2023/03/30 06:15:43;;;;;;;8.98;2.97;;;;;;;13.95;69.93;100110.31;5088756;28;20048;-55
2023/03/30 06:18:14;;;;;;;14.23;2.70;;;;;;;13.78;70.88;100107.09;5094150;28;20444;-55
2023/03/30 06:20:50;;;;;;;14.10;3.03;;;;;;;13.72;71.88;100114.03;5085520;28;20126;-55
2023/03/30 06:23:17;;;;;;;11.55;3.00;;;;;;;13.81;70.99;100110.22;5092794;28;20051;-55
2023/03/30 06:25:51;;;;;;;12.88;2.97;;;;;;;13.83;70.76;100104.69;5087587;28;20044;-56
2023/03/30 06:28:21;;;;;;;17.60;2.85;;;;;;;13.74;71.53;100104.00;5096604;28;20044;-56
2023/03/30 06:30:48;;;;;;;15.30;3.15;;;;;;;13.77;70.10;100116.09;5091659;28;20044;-56
2023/03/30 06:33:18;;;;;;;10.05;2.65;;;;;;;13.70;70.80;100117.88;5094343;28;20097;-55
2023/03/30 06:35:53;;;;;;;12.32;3.88;;;;;;;13.90;69.02;100112.72;5088598;28;20474;-55
2023/03/30 06:38:22;;;;;;;15.82;3.42;;;;;;;14.01;68.28;100118.38;5093256;28;20082;-56
2023/03/30 06:40:51;;;;;;;9.55;3.05;;;;;;;14.00;68.17;100123.91;5088270;28;20048;-55
2023/03/30 06:43:22;;;;;;;14.70;4.38;;;;;;;13.97;68.64;100126.94;5092017;28;20040;-56
2023/03/30 06:46:00;;;;;;;10.30;2.85;;;;;;;13.94;68.76;100128.16;5088109;28;20044;-56
2023/03/30 06:48:27;;;;;;;9.63;2.88;;;;;;;13.99;68.72;100127.63;5093626;28;20052;-56
2023/03/30 06:51:15;;;;;;;11.00;2.88;;;;;;;13.94;68.66;100138.03;5087857;28;20127;-56
2023/03/30 06:53:42;;;;;;;12.40;2.72;;;;;;;14.06;68.04;100141.84;5092786;28;20409;-55
2023/03/30 06:56:10;;;;;;;14.30;2.80;;;;;;;14.05;68.60;100139.34;5088258;28;20048;-56
2023/03/30 06:58:48;;;;;;;12.23;3.38;;;;;;;13.93;69.53;100134.50;5093402;28;20052;-56
2023/03/30 07:01:15;;;;;;;14.07;2.70;;;;;;;13.96;69.05;100143.97;5087534;28;20093;-56
2023/03/30 07:04:02;;;;;;;11.52;2.60;;;;;;;14.00;69.43;100146.06;5090684;28;20413;-58
2023/03/30 07:06:48;;;;;;;11.35;2.90;;;;;;;14.09;68.83;100148.63;5080118;28;20497;-56
2023/03/30 07:09:16;;;;;;;11.32;2.83;;;;;;;14.10;69.28;100144.91;5093677;28;20071;-56
2023/03/30 07:11:42;;;;;;;11.95;2.45;;;;;;;14.04;68.25;100140.34;5087695;28;20036;-56
2023/03/30 07:14:11;;;;;;;13.77;2.88;;;;;;;14.10;68.35;100152.91;5093144;28;20044;-56
2023/03/30 07:16:39;;;;;;;12.68;2.63;;;;;;;14.12;68.68;100149.06;5087684;28;20171;-57
2023/03/30 07:19:06;;;;;;;11.90;2.65;;;;;;;14.01;69.46;100153.06;5092807;28;20040;-57
2023/03/30 07:21:33;;;;;;;11.25;2.90;;;;;;;14.13;68.56;100156.03;5079426;28;20310;-55
2023/03/30 07:24:00;;;;;;;9.77;2.65;;;;;;;14.15;68.69;100159.34;5088536;28;20036;-56
2023/03/30 07:26:32;;;;;;;14.00;3.22;;;;;;;14.07;69.35;100148.81;5086507;28;20102;-56
2023/03/30 07:29:06;;;;;;;9.07;2.72;;;;;;;14.13;69.07;100156.03;5092697;28;20548;-55
2023/03/30 07:31:33;;;;;;;12.30;2.53;;;;;;;14.24;68.53;100164.53;5087544;28;20066;-56
2023/03/30 07:34:03;;;;;;;9.40;2.90;;;;;;;14.20;69.30;100158.75;5091002;28;20501;-56
2023/03/30 07:36:34;;;;;;;11.43;2.80;;;;;;;14.11;69.58;100158.06;5087494;28;20044;-59
2023/03/30 07:39:01;;;;;;;9.90;2.38;;;;;;;14.18;68.97;100168.81;5092547;28;20055;-56
2023/03/30 07:41:30;;;;;;;11.65;2.63;;;;;;;14.11;69.59;100170.56;5076967;28;20056;-55
2023/03/30 07:43:58;;;;;;;8.43;2.20;;;;;;;14.06;69.78;100171.16;5108114;28;20397;-55
2023/03/30 07:46:25;;;;;;;8.80;2.40;;;;;;;14.03;70.04;100184.88;5100060;28;20140;-56
2023/03/30 07:48:53;;;;;;;14.98;2.90;;;;;;;13.95;73.62;100201.81;5107305;28;20044;-56
2023/03/30 07:51:22;;;;;;;11.80;2.28;;;;;;;13.28;77.61;100205.50;5100504;28;20511;-55
2023/03/30 07:53:56;;;;;;;7.80;2.20;;;;;;;12.87;82.06;100209.44;5101408;28;20142;-56
2023/03/30 07:56:32;;;;;;;9.98;2.10;;;;;;;12.61;84.82;100217.03;5090126;27;20566;-56
2023/03/30 07:58:59;;;;;;;9.02;2.05;;;;;;;12.33;87.05;100214.09;5106444;28;20048;-57
2023/03/30 08:01:31;;;;;;;13.43;2.22;;;;;;;12.01;91.64;100211.50;5102203;28;20043;-57
2023/03/30 08:04:12;;;;;;;15.75;2.90;;;;;;;11.82;93.14;100218.03;5073645;28;20059;-56
2023/03/30 08:06:40;;;;;;;11.15;2.20;;;;;;;11.67;93.62;100211.81;5105757;28;20040;-56
2023/03/30 08:09:07;;;;;;;13.13;2.50;;;;;;;11.68;94.35;100216.97;5103880;28;20044;-57
2023/03/30 08:11:35;;;;;;;17.00;2.80;;;;;;;11.58;95.18;100210.22;5079980;28;20036;-56
2023/03/30 08:14:03;;;;;;;14.02;2.38;;;;;;;11.59;96.41;100210.03;5099156;28;20051;-56
2023/03/30 08:16:30;;;;;;;10.93;2.22;;;;;;;11.47;96.62;100214.91;5095615;28;20044;-57
2023/03/30 08:18:57;;;;;;;17.40;2.90;;;;;;;11.56;95.93;100213.03;5091320;28;20113;-57
2023/03/30 08:21:25;;;;;;;13.90;2.67;;;;;;;11.76;95.58;100224.06;5077375;28;20302;-56
2023/03/30 08:23:54;;;;;;;15.18;2.75;;;;;;;11.86;94.14;100226.47;5096725;28;20043;-56
2023/03/30 08:26:21;;;;;;;14.27;2.78;;;;;;;11.94;94.75;100226.47;5078983;28;20047;-56
2023/03/30 08:28:48;;;;;;;17.38;2.95;;;;;;;11.91;94.48;100232.13;5094095;28;20442;-56
2023/03/30 08:31:16;;;;;;;16.65;2.63;;;;;;;12.06;91.54;100226.91;5089191;28;20036;-55
2023/03/30 08:33:44;;;;;;;16.92;2.85;;;;;;;12.17;91.01;100229.16;5086538;28;20040;-55
2023/03/30 08:36:11;;;;;;;17.40;3.28;;;;;;;12.42;89.59;100218.34;5080759;28;20050;-56
2023/03/30 08:38:38;;;;;;;13.52;2.92;;;;;;;12.44;90.06;100227.81;5067503;28;20040;-55
2023/03/30 08:41:38;;;;;;;15.80;3.15;;;;;;;12.51;87.77;100211.94;5073959;28;20048;-55
2023/03/30 08:44:22;;;;;;;8.85;2.17;;;;;;;12.49;87.12;100213.94;5065214;28;20522;-56
2023/03/30 08:46:49;;;;;;;15.10;2.40;;;;;;;12.63;85.93;100223.00;5080634;28;20044;-54
2023/03/30 08:49:19;;;;;;;15.10;2.97;;;;;;;12.79;86.54;100216.69;5088146;28;20040;-55
2023/03/30 08:51:50;;;;;;;12.63;3.47;;;;;;;12.98;86.61;100218.81;5086864;28;20678;-55
2023/03/30 08:54:19;;;;;;;14.35;3.10;;;;;;;13.24;85.23;100217.53;5092948;28;20056;-55
2023/03/30 08:57:04;;;;;;;15.05;3.33;;;;;;;13.50;85.45;100224.25;5082503;28;20501;-56
2023/03/30 09:00:00;;;;;;;22.23;3.45;;;;;;;13.79;83.78;100226.06;5075694;28;20169;-56
2023/03/30 09:02:31;;;;;;;14.32;3.03;;;;;;;13.86;82.10;100226.97;5088456;28;20509;-55
2023/03/30 09:05:12;;;;;;;92.03;37.65;;;;;;;13.89;81.63;100231.91;5086289;28;20045;-58
2023/03/30 09:07:51;;;;;;;23.17;4.57;;;;;;;13.81;84.36;100232.84;5085810;28;20071;-54
2023/03/30 09:10:20;;;;;;;12.68;3.10;;;;;;;13.57;80.71;100239.31;5092489;28;20825;-55
2023/03/30 09:12:53;;;;;;;11.98;2.90;;;;;;;13.45;80.68;100246.13;5082717;28;20901;-54
2023/03/30 09:15:43;;;;;;;17.02;3.13;;;;;;;13.49;82.80;100242.06;5075520;28;20070;-54
2023/03/30 09:18:21;;;;;;;12.32;3.22;;;;;;;13.20;83.41;100258.84;5085307;28;20559;-54
2023/03/30 09:20:51;;;;;;;15.85;2.67;;;;;;;12.78;85.10;100311.66;5086269;28;20047;-55
2023/03/30 09:23:17;;;;;;;11.68;1.80;;;;;;;11.89;89.44;100287.28;5089923;28;20047;-54
2023/03/30 09:28:52;;;;;;;8.10;1.55;;;;;;;11.35;95.83;100266.75;5036217;28;20946;-53
2023/03/30 09:31:27;;;;;;;9.05;1.65;;;;;;;11.37;94.15;100293.09;5035685;28;20528;-54
2023/03/30 09:34:02;;;;;;;13.80;1.85;;;;;;;11.40;92.48;100269.69;5027248;28;20041;-55
2023/03/30 09:37:09;;;;;;;16.75;2.38;;;;;;;11.46;91.20;100278.81;5039145;28;20152;-54
2023/03/30 09:39:37;;;;;;;10.70;1.90;;;;;;;11.56;91.70;100286.59;5037824;28;20052;-55
2023/03/30 09:42:32;;;;;;;18.75;2.80;;;;;;;11.62;91.50;100288.56;5035136;28;20119;-54
2023/03/30 09:45:26;;;;;;;16.33;2.40;;;;;;;11.53;89.61;100280.63;5029866;28;20398;-56
2023/03/30 09:47:53;;;;;;;11.73;2.65;;;;;;;11.66;89.88;100319.09;5036191;28;20042;-54
2023/03/30 09:50:23;;;;;;;13.63;2.28;;;;;;;11.66;89.79;100305.78;5035930;28;20050;-54
2023/03/30 09:52:58;;;;;;;22.25;2.58;;;;;;;11.58;90.15;100306.66;5029290;28;20109;-54
2023/03/30 09:55:32;;;;;;;14.20;2.38;;;;;;;11.62;89.38;100307.16;5035403;28;20045;-55
2023/03/30 09:58:25;;;;;;;11.40;2.33;;;;;;;11.64;90.02;100321.09;5025785;28;20180;-54
2023/03/30 10:01:11;;;;;;;15.63;3.03;;;;;;;11.61;91.85;100319.63;5023023;28;20500;-54
2023/03/30 10:03:41;;;;;;;14.77;2.20;;;;;;;11.70;91.29;100321.25;5032778;28;20054;-55
2023/03/30 10:06:12;;;;;;;13.20;2.40;;;;;;;11.66;93.52;100311.09;5019403;28;20530;-54
2023/03/30 10:08:50;;;;;;;16.27;2.80;;;;;;;11.75;91.64;100326.06;5004941;28;20439;-54
2023/03/30 10:11:20;;;;;;;11.60;2.20;;;;;;;11.83;91.80;100322.53;5037046;28;20049;-54
2023/03/30 10:13:50;;;;;;;10.77;2.50;;;;;;;11.59;91.89;100297.72;5020013;28;20046;-54
2023/03/30 10:16:28;;;;;;;15.05;2.92;;;;;;;11.59;94.33;100318.97;5044884;28;20053;-54
2023/03/30 10:19:00;;;;;;;14.98;2.90;;;;;;;11.64;92.66;100299.81;5022154;28;20083;-54
2023/03/30 10:21:31;;;;;;;14.05;2.90;;;;;;;11.71;93.21;100298.16;5030498;28;20046;-55
2023/03/30 10:24:02;;;;;;;19.70;3.72;;;;;;;11.90;92.63;100304.91;5022962;28;20095;-54
2023/03/30 10:26:30;;;;;;;15.77;3.40;;;;;;;12.03;92.95;100305.19;5029305;28;20066;-56
2023/03/30 10:29:03;;;;;;;16.85;3.10;;;;;;;11.97;93.41;100308.53;5021832;28;20065;-56
2023/03/30 10:31:35;;;;;;;15.93;2.70;;;;;;;12.21;91.26;100323.53;5038023;28;20072;-54
2023/03/30 10:34:06;;;;;;;13.48;2.95;;;;;;;12.29;89.02;100317.34;5029425;28;20042;-55
2023/03/30 10:36:38;;;;;;;12.80;2.50;;;;;;;12.71;87.81;100326.69;5037533;28;20060;-56
2023/03/30 10:39:17;;;;;;;11.55;2.25;;;;;;;12.85;84.78;100331.22;5014197;28;20037;-56
2023/03/30 10:41:46;;;;;;;12.88;2.40;;;;;;;13.63;84.33;100333.69;4997853;28;20583;-54
2023/03/30 10:44:35;;;;;;;10.30;2.30;;;;;;;14.53;81.13;100331.69;4990155;28;20825;-54
2023/03/30 10:47:19;;;;;;;10.90;2.10;;;;;;;13.97;78.72;100322.47;5007946;28;20069;-55
2023/03/30 10:50:15;;;;;;;14.35;2.65;;;;;;;14.09;80.80;100333.47;5014849;28;20369;-54
2023/03/30 10:53:22;;;;;;;9.30;2.30;;;;;;;14.06;77.18;100320.50;4996650;28;20050;-56
2023/03/30 10:56:30;;;;;;;10.20;2.22;;;;;;;14.27;76.74;100322.38;5018559;28;20128;-56
2023/03/30 10:59:36;;;;;;;10.55;2.05;;;;;;;15.18;75.69;100323.66;5011572;28;20111;-55
2023/03/30 11:02:28;;;;;;;10.02;1.80;;;;;;;14.77;72.18;100335.84;5000629;28;20057;-55
2023/03/30 11:05:03;;;;;;;17.27;2.28;;;;;;;15.07;72.78;100320.50;5015745;28;20038;-57
2023/03/30 11:07:44;;;;;;;16.85;3.30;;;;;;;15.79;71.37;100320.34;5020032;28;20514;-56
2023/03/30 11:10:28;;;;;;;8.82;2.30;;;;;;;16.38;69.45;100324.28;5014126;28;20049;-56
2023/03/30 11:12:59;;;;;;;12.18;2.67;;;;;;;16.39;64.33;100337.47;4994006;28;20542;-57
2023/03/30 11:15:34;;;;;;;11.38;2.20;;;;;;;16.95;63.49;100335.50;5003260;28;20040;-56
2023/03/30 11:18:24;;;;;;;10.70;2.78;;;;;;;16.17;64.70;100335.94;4993361;28;20076;-55
2023/03/30 11:21:00;;;;;;;11.15;2.47;;;;;;;16.16;64.33;100359.19;5004215;28;20046;-54
2023/03/30 11:23:51;;;;;;;18.23;3.17;;;;;;;16.68;64.33;100338.13;5018612;28;20037;-55
2023/03/30 11:26:28;;;;;;;16.05;2.40;;;;;;;16.69;61.41;100340.59;5010599;28;20529;-54
2023/03/30 11:29:19;;;;;;;14.73;2.75;;;;;;;16.03;62.53;100341.25;5021633;28;20045;-53
2023/03/30 11:31:55;;;;;;;21.87;2.80;;;;;;;15.69;64.34;100339.41;5019455;28;20049;-54
2023/03/30 11:34:33;;;;;;;18.35;2.70;;;;;;;15.99;63.73;100337.31;4983526;28;20049;-56
2023/03/30 11:37:26;;;;;;;12.70;1.80;;;;;;;16.64;61.97;100331.53;5007519;28;20057;-56
2023/03/30 11:40:07;;;;;;;11.95;2.50;;;;;;;16.68;62.44;100333.59;5001355;28;20045;-55
2023/03/30 11:42:35;;;;;;;14.87;2.57;;;;;;;17.46;58.98;100335.69;5020536;28;20060;-55
2023/03/30 11:45:29;;;;;;;13.95;2.70;;;;;;;17.54;58.91;100323.91;4976463;28;20306;-56
2023/03/30 11:48:11;;;;;;;12.85;2.20;;;;;;;17.95;57.16;100329.97;5021528;28;20128;-54
2023/03/30 11:50:58;;;;;;;17.15;2.30;;;;;;;16.72;59.33;100326.00;4994200;28;20045;-55
2023/03/30 11:54:05;;;;;;;13.38;2.60;;;;;;;16.41;61.27;100326.53;5001634;28;20037;-54
2023/03/30 11:56:45;;;;;;;15.52;2.28;;;;;;;16.14;62.21;100320.31;5019505;28;20490;-55
2023/03/30 12:02:39;;;;;;;10.60;2.30;;;;;;;15.46;66.11;100332.50;5028476;28;20408;-55
2023/03/30 12:05:15;;;;;;;12.43;2.83;;;;;;;14.98;67.73;100322.47;5025316;28;20055;-55
2023/03/30 12:07:57;;;;;;;10.85;2.30;;;;;;;14.67;69.67;100330.00;5027054;28;20680;-54
2023/03/30 12:10:29;;;;;;;;;;;;;;;13.86;74.04;100340.75;5018131;28;20927;-56
2023/03/30 12:12:57;;;;;;;7.47;1.80;;;;;;;13.67;79.69;100344.81;5023522;28;19928;-56
2023/03/30 12:15:40;;;;;;;12.30;2.20;;;;;;;14.21;80.25;100352.50;5014358;28;21666;-55
2023/03/30 12:18:23;;;;;;;11.27;2.35;;;;;;;15.72;75.36;100339.00;5030271;28;20384;-54